AFR606 LKPR-OKKK
Flight info
| Callsign | AFR606 |
|---|---|
| Flight time | N/A |
| Altitude | 33000 |
| Route | LKPR/06 N0459F330 VOZ4E VOZ DCT NIT DCT UVERA DCT ULMIN DCT TUMOP DCT IVGOT Q7 ARTAT UP975 ERGUN/N0467F350 UP975 LESRI P975 ULDUR M688 SIDAD SIDA1H OKKK/34 |
| Aircraft | A321/L-V/N |
Departure
| Time | 2026-05-04 21:09 |
|---|---|
| Airport | Václav Havel Airport Prague (LKPR) |
Arrival
| Time | N/A |
|---|---|
| Airport | Kuwait International Airport (OKKK) |
| Time | Latitude | Longitude | Altitude | Speed | Heading |
|---|---|---|---|---|---|
| 2026-05-04 20:45 | 50.10622 | 14.26197 | 1174 ft | 0 kts | 35° |
| 2026-05-04 21:00 | 50.10617 | 14.26191 | 1174 ft | 2 kts | 35° |
| 2026-05-04 21:00 | 50.10603 | 14.26175 | 1174 ft | 2 kts | 34° |
| 2026-05-04 21:00 | 50.10585 | 14.26156 | 1175 ft | 1 kts | 34° |
| 2026-05-04 21:00 | 50.10579 | 14.26150 | 1175 ft | 3 kts | 29° |
| 2026-05-04 21:01 | 50.10559 | 14.26150 | 1176 ft | 2 kts | 327° |
| 2026-05-04 21:01 | 50.10552 | 14.26160 | 1176 ft | 1 kts | 301° |
| 2026-05-04 21:01 | 50.10549 | 14.26167 | 1176 ft | 0 kts | 305° |
| 2026-05-04 21:02 | 50.10550 | 14.26167 | 1176 ft | 0 kts | 305° |
| 2026-05-04 21:03 | 50.10559 | 14.26148 | 1176 ft | 6 kts | 304° |
| 2026-05-04 21:03 | 50.10579 | 14.26071 | 1175 ft | 8 kts | 269° |
| 2026-05-04 21:03 | 50.10552 | 14.25995 | 1176 ft | 7 kts | 220° |
| 2026-05-04 21:03 | 50.10517 | 14.25936 | 1177 ft | 7 kts | 243° |
| 2026-05-04 21:04 | 50.10493 | 14.25818 | 1175 ft | 13 kts | 257° |
| 2026-05-04 21:04 | 50.10478 | 14.25669 | 1176 ft | 11 kts | 259° |
| 2026-05-04 21:04 | 50.10459 | 14.25531 | 1177 ft | 11 kts | 257° |
| 2026-05-04 21:04 | 50.10434 | 14.25332 | 1178 ft | 21 kts | 259° |
| 2026-05-04 21:05 | 50.10402 | 14.25056 | 1175 ft | 25 kts | 259° |
| 2026-05-04 21:05 | 50.10367 | 14.24754 | 1173 ft | 27 kts | 259° |
| 2026-05-04 21:05 | 50.10327 | 14.24431 | 1173 ft | 28 kts | 259° |
| 2026-05-04 21:05 | 50.10288 | 14.24124 | 1179 ft | 26 kts | 258° |
| 2026-05-04 21:06 | 50.10249 | 14.23834 | 1183 ft | 26 kts | 258° |
| 2026-05-04 21:06 | 50.10211 | 14.23552 | 1187 ft | 23 kts | 259° |
| 2026-05-04 21:06 | 50.10164 | 14.23313 | 1192 ft | 20 kts | 245° |
| 2026-05-04 21:06 | 50.10102 | 14.23126 | 1195 ft | 17 kts | 242° |
| 2026-05-04 21:07 | 50.10057 | 14.22959 | 1200 ft | 13 kts | 247° |
| 2026-05-04 21:07 | 50.10039 | 14.22825 | 1203 ft | 10 kts | 281° |
| 2026-05-04 21:07 | 50.10084 | 14.22738 | 1204 ft | 2 kts | 332° |
| 2026-05-04 21:07 | 50.10084 | 14.22737 | 1204 ft | 0 kts | 332° |
| 2026-05-04 21:08 | 50.10117 | 14.22718 | 1204 ft | 9 kts | 347° |
| 2026-05-04 21:08 | 50.10194 | 14.22738 | 1202 ft | 12 kts | 27° |
| 2026-05-04 21:08 | 50.10256 | 14.22863 | 1199 ft | 14 kts | 64° |
| 2026-05-04 21:09 | 50.10358 | 14.23192 | 1193 ft | 63 kts | 65° |
| 2026-05-04 21:09 | 50.10704 | 14.24336 | 1168 ft | 139 kts | 64° |
| 2026-05-04 21:09 | 50.11231 | 14.26139 | 1167 ft | 194 kts | 66° |
| 2026-05-04 21:09 | 50.11800 | 14.28256 | 2023 ft | 185 kts | 66° |
| 2026-05-04 21:10 | 50.12381 | 14.30178 | 2687 ft | 180 kts | 64° |
| 2026-05-04 21:10 | 50.12997 | 14.32145 | 3065 ft | 189 kts | 65° |
| 2026-05-04 21:10 | 50.13652 | 14.34274 | 3360 ft | 202 kts | 65° |
| 2026-05-04 21:10 | 50.14344 | 14.36556 | 3659 ft | 216 kts | 65° |
| 2026-05-04 21:11 | 50.15063 | 14.38950 | 3879 ft | 235 kts | 65° |
| 2026-05-04 21:11 | 50.15838 | 14.41543 | 4197 ft | 251 kts | 66° |
| 2026-05-04 21:11 | 50.16649 | 14.44269 | 4558 ft | 266 kts | 65° |
| 2026-05-04 21:11 | 50.17467 | 14.47022 | 5121 ft | 271 kts | 65° |
| 2026-05-04 21:12 | 50.18283 | 14.49765 | 5734 ft | 274 kts | 66° |
| 2026-05-04 21:12 | 50.19091 | 14.52493 | 6323 ft | 278 kts | 66° |
| 2026-05-04 21:12 | 50.19801 | 14.55390 | 6881 ft | 281 kts | 82° |
| 2026-05-04 21:12 | 50.19637 | 14.58507 | 7432 ft | 282 kts | 111° |
| 2026-05-04 21:13 | 50.18570 | 14.61098 | 7990 ft | 281 kts | 139° |
| 2026-05-04 21:13 | 50.16818 | 14.62687 | 8543 ft | 281 kts | 166° |
| 2026-05-04 21:13 | 50.14742 | 14.63157 | 9160 ft | 282 kts | 175° |
| 2026-05-04 21:13 | 50.12640 | 14.63487 | 9758 ft | 285 kts | 175° |
| 2026-05-04 21:14 | 50.10552 | 14.63839 | 10325 ft | 289 kts | 175° |
| 2026-05-04 21:14 | 50.08366 | 14.64227 | 10619 ft | 303 kts | 175° |
| 2026-05-04 21:14 | 50.06048 | 14.64652 | 10898 ft | 318 kts | 174° |
| 2026-05-04 21:14 | 50.03646 | 14.65101 | 11165 ft | 331 kts | 175° |
| 2026-05-04 21:15 | 50.01127 | 14.65580 | 11423 ft | 345 kts | 174° |
| 2026-05-04 21:15 | 49.98575 | 14.66254 | 11660 ft | 358 kts | 170° |
| 2026-05-04 21:15 | 49.95928 | 14.67274 | 11893 ft | 371 kts | 166° |
| 2026-05-04 21:15 | 49.93339 | 14.68493 | 12104 ft | 382 kts | 165° |
| 2026-05-04 21:16 | 49.90686 | 14.69761 | 12321 ft | 393 kts | 165° |
| 2026-05-04 21:16 | 49.88028 | 14.71030 | 12574 ft | 400 kts | 165° |
| 2026-05-04 21:16 | 49.85328 | 14.72317 | 13006 ft | 403 kts | 165° |
| 2026-05-04 21:16 | 49.82629 | 14.73601 | 13459 ft | 405 kts | 165° |
| 2026-05-04 21:17 | 49.79915 | 14.74888 | 13889 ft | 407 kts | 165° |
| 2026-05-04 21:17 | 49.77191 | 14.76176 | 14297 ft | 409 kts | 165° |
| 2026-05-04 21:17 | 49.74472 | 14.77461 | 14690 ft | 412 kts | 165° |
| 2026-05-04 21:17 | 49.71720 | 14.78760 | 15079 ft | 414 kts | 165° |
| 2026-05-04 21:18 | 49.68968 | 14.80057 | 15437 ft | 417 kts | 165° |
| 2026-05-04 21:18 | 49.66196 | 14.81364 | 15779 ft | 420 kts | 165° |
| 2026-05-04 21:18 | 49.63410 | 14.82676 | 16144 ft | 422 kts | 165° |
| 2026-05-04 21:18 | 49.60598 | 14.83995 | 16495 ft | 424 kts | 165° |
| 2026-05-04 21:19 | 49.57755 | 14.85328 | 16835 ft | 426 kts | 165° |
| 2026-05-04 21:19 | 49.54967 | 14.87104 | 17117 ft | 432 kts | 151° |
| 2026-05-04 21:19 | 49.52611 | 14.89956 | 17418 ft | 438 kts | 136° |
| 2026-05-04 21:19 | 49.50792 | 14.93731 | 17758 ft | 442 kts | 122° |
| 2026-05-04 21:20 | 49.49273 | 14.97842 | 18100 ft | 443 kts | 120° |
| 2026-05-04 21:20 | 49.47772 | 15.01984 | 18381 ft | 446 kts | 120° |
| 2026-05-04 21:20 | 49.46264 | 15.06133 | 18695 ft | 447 kts | 120° |
| 2026-05-04 21:20 | 49.44740 | 15.10293 | 19020 ft | 449 kts | 120° |
| 2026-05-04 21:21 | 49.43199 | 15.14478 | 19307 ft | 450 kts | 120° |
| 2026-05-04 21:21 | 49.41633 | 15.18710 | 19569 ft | 453 kts | 121° |
| 2026-05-04 21:21 | 49.40074 | 15.22908 | 19836 ft | 455 kts | 121° |
| 2026-05-04 21:21 | 49.38501 | 15.27126 | 20106 ft | 456 kts | 121° |
| 2026-05-04 21:22 | 49.36900 | 15.31409 | 20379 ft | 458 kts | 121° |
| 2026-05-04 21:22 | 49.35295 | 15.35700 | 20630 ft | 460 kts | 121° |
| 2026-05-04 21:22 | 49.33686 | 15.39988 | 20877 ft | 462 kts | 120° |
| 2026-05-04 21:22 | 49.32085 | 15.44250 | 21125 ft | 464 kts | 120° |
| 2026-05-04 21:23 | 49.30473 | 15.48533 | 21374 ft | 466 kts | 120° |
| 2026-05-04 21:23 | 49.28846 | 15.52850 | 21609 ft | 468 kts | 120° |
| 2026-05-04 21:23 | 49.27211 | 15.57182 | 21835 ft | 470 kts | 120° |
| 2026-05-04 21:23 | 49.25570 | 15.61521 | 22063 ft | 472 kts | 120° |
| 2026-05-04 21:24 | 49.23930 | 15.65850 | 22278 ft | 473 kts | 121° |
| 2026-05-04 21:24 | 49.22273 | 15.70219 | 22500 ft | 475 kts | 121° |
| 2026-05-04 21:24 | 49.20620 | 15.74565 | 22711 ft | 477 kts | 121° |
| 2026-05-04 21:24 | 49.18959 | 15.78930 | 22900 ft | 479 kts | 121° |
| 2026-05-04 21:25 | 49.16706 | 15.84835 | 23172 ft | 481 kts | 121° |
| 2026-05-04 21:25 | 49.15595 | 15.87741 | 23356 ft | 481 kts | 121° |
| 2026-05-04 21:25 | 49.13924 | 15.92107 | 23674 ft | 480 kts | 120° |
| 2026-05-04 21:25 | 49.12249 | 15.96482 | 24011 ft | 478 kts | 120° |
| 2026-05-04 21:26 | 49.10549 | 16.00913 | 24334 ft | 478 kts | 120° |
| 2026-05-04 21:26 | 49.08895 | 16.05216 | 24645 ft | 477 kts | 120° |
| 2026-05-04 21:26 | 49.07223 | 16.09559 | 24961 ft | 477 kts | 120° |
| 2026-05-04 21:26 | 49.05532 | 16.13944 | 25292 ft | 476 kts | 120° |
| 2026-05-04 21:27 | 49.03870 | 16.18245 | 25614 ft | 475 kts | 120° |
| 2026-05-04 21:27 | 49.02207 | 16.22542 | 25922 ft | 474 kts | 120° |
| 2026-05-04 21:27 | 49.00529 | 16.26872 | 26237 ft | 473 kts | 120° |
| 2026-05-04 21:27 | 48.98854 | 16.31187 | 26551 ft | 473 kts | 120° |
| 2026-05-04 21:28 | 48.97190 | 16.35465 | 26866 ft | 472 kts | 121° |
| 2026-05-04 21:28 | 48.95524 | 16.39740 | 27178 ft | 471 kts | 120° |
| 2026-05-04 21:28 | 48.93876 | 16.43962 | 27492 ft | 470 kts | 120° |
| 2026-05-04 21:28 | 48.92199 | 16.48255 | 27786 ft | 470 kts | 120° |
| 2026-05-04 21:29 | 48.90523 | 16.52534 | 28085 ft | 469 kts | 120° |
| 2026-05-04 21:29 | 48.88868 | 16.56753 | 28376 ft | 468 kts | 120° |
| 2026-05-04 21:29 | 48.87207 | 16.60982 | 28674 ft | 467 kts | 120° |
| 2026-05-04 21:29 | 48.85558 | 16.65176 | 28964 ft | 466 kts | 121° |
| 2026-05-04 21:30 | 48.83889 | 16.69413 | 29260 ft | 465 kts | 121° |
| 2026-05-04 21:30 | 48.82230 | 16.73617 | 29532 ft | 465 kts | 121° |
| 2026-05-04 21:30 | 48.80586 | 16.77776 | 29793 ft | 464 kts | 121° |
| 2026-05-04 21:30 | 48.78381 | 16.83344 | 30156 ft | 463 kts | 121° |
| 2026-05-04 21:31 | 48.75605 | 16.90341 | 30594 ft | 462 kts | 121° |
| 2026-05-04 21:31 | 48.73959 | 16.94480 | 30844 ft | 461 kts | 121° |
| 2026-05-04 21:31 | 48.72292 | 16.98668 | 31078 ft | 461 kts | 121° |
| 2026-05-04 21:32 | 48.70652 | 17.02779 | 31299 ft | 461 kts | 121° |
| 2026-05-04 21:32 | 48.68982 | 17.06958 | 31479 ft | 462 kts | 121° |
| 2026-05-04 21:32 | 48.67317 | 17.11118 | 31634 ft | 463 kts | 121° |
| 2026-05-04 21:32 | 48.65630 | 17.15328 | 31808 ft | 464 kts | 121° |
| 2026-05-04 21:33 | 48.63943 | 17.19528 | 31977 ft | 465 kts | 121° |
| 2026-05-04 21:33 | 48.62268 | 17.23696 | 32141 ft | 466 kts | 121° |
| 2026-05-04 21:33 | 48.60563 | 17.27931 | 32319 ft | 466 kts | 121° |
| 2026-05-04 21:33 | 48.58873 | 17.32121 | 32473 ft | 467 kts | 121° |
| 2026-05-04 21:34 | 48.57176 | 17.36321 | 32610 ft | 468 kts | 121° |
| 2026-05-04 21:34 | 48.55475 | 17.40526 | 32754 ft | 469 kts | 121° |
| 2026-05-04 21:34 | 48.53765 | 17.44745 | 32905 ft | 469 kts | 121° |
| 2026-05-04 21:35 | 48.50377 | 17.53087 | 32988 ft | 470 kts | 121° |
| 2026-05-04 21:35 | 48.46967 | 17.61456 | 32993 ft | 470 kts | 120° |
| 2026-05-04 21:36 | 48.43528 | 17.69872 | 32994 ft | 470 kts | 121° |
| 2026-05-04 21:36 | 48.40129 | 17.78165 | 32996 ft | 470 kts | 121° |
| 2026-05-04 21:37 | 48.36671 | 17.86577 | 32997 ft | 469 kts | 121° |
| 2026-05-04 21:37 | 48.33245 | 17.94888 | 33000 ft | 470 kts | 121° |
| 2026-05-04 21:38 | 48.29798 | 18.03217 | 33006 ft | 469 kts | 121° |
| 2026-05-04 21:38 | 48.26275 | 18.11434 | 33009 ft | 469 kts | 122° |
| 2026-05-04 21:39 | 48.22653 | 18.19596 | 33006 ft | 470 kts | 122° |
| 2026-05-04 21:39 | 48.19027 | 18.27766 | 33005 ft | 470 kts | 122° |
| 2026-05-04 21:40 | 48.15417 | 18.35904 | 33009 ft | 470 kts | 122° |
| 2026-05-04 21:40 | 48.11813 | 18.44010 | 33009 ft | 470 kts | 122° |
| 2026-05-04 21:41 | 48.08186 | 18.52148 | 33013 ft | 471 kts | 122° |
| 2026-05-04 21:41 | 48.04541 | 18.60301 | 33015 ft | 471 kts | 122° |
| 2026-05-04 21:42 | 48.00911 | 18.68399 | 33015 ft | 471 kts | 123° |
| 2026-05-04 21:42 | 47.97268 | 18.76500 | 33021 ft | 471 kts | 122° |
| 2026-05-04 21:43 | 47.93610 | 18.84609 | 33027 ft | 472 kts | 122° |
| 2026-05-04 21:43 | 47.89912 | 18.92785 | 33032 ft | 472 kts | 122° |
| 2026-05-04 21:44 | 47.86265 | 19.00823 | 33045 ft | 473 kts | 122° |
| 2026-05-04 21:44 | 47.82574 | 19.08935 | 33047 ft | 473 kts | 122° |
| 2026-05-04 21:45 | 47.78879 | 19.17031 | 33045 ft | 473 kts | 122° |
| 2026-05-04 21:45 | 47.75188 | 19.25095 | 33045 ft | 473 kts | 122° |
| 2026-05-04 21:46 | 47.71470 | 19.33192 | 33045 ft | 473 kts | 122° |
| 2026-05-04 21:46 | 47.67772 | 19.41223 | 33047 ft | 472 kts | 122° |
| 2026-05-04 21:47 | 47.64045 | 19.49295 | 33044 ft | 472 kts | 122° |
| 2026-05-04 21:47 | 47.60345 | 19.57281 | 33047 ft | 472 kts | 122° |
| 2026-05-04 21:48 | 47.56636 | 19.65267 | 33048 ft | 472 kts | 123° |
| 2026-05-04 21:48 | 47.52910 | 19.73265 | 33056 ft | 472 kts | 123° |
| 2026-05-04 21:49 | 47.49182 | 19.81242 | 33053 ft | 472 kts | 123° |
| 2026-05-04 21:49 | 47.45477 | 19.89152 | 33047 ft | 472 kts | 123° |
| 2026-05-04 21:50 | 47.41743 | 19.97097 | 33052 ft | 472 kts | 123° |
| 2026-05-04 21:50 | 47.37982 | 20.05078 | 33054 ft | 471 kts | 123° |
| 2026-05-04 21:51 | 47.34266 | 20.12943 | 33057 ft | 471 kts | 123° |
| 2026-05-04 21:51 | 47.30499 | 20.20891 | 33053 ft | 471 kts | 123° |
| 2026-05-04 21:52 | 47.26738 | 20.28808 | 33055 ft | 471 kts | 123° |
| 2026-05-04 21:52 | 47.23005 | 20.36643 | 33052 ft | 471 kts | 123° |
| 2026-05-04 21:53 | 47.19290 | 20.44526 | 33058 ft | 470 kts | 121° |
| 2026-05-04 21:53 | 47.15704 | 20.52590 | 33055 ft | 470 kts | 120° |
| 2026-05-04 21:54 | 47.12151 | 20.60579 | 33056 ft | 470 kts | 120° |
| 2026-05-04 21:54 | 47.08583 | 20.68581 | 33052 ft | 470 kts | 121° |
| 2026-05-04 21:55 | 47.05015 | 20.76557 | 33056 ft | 469 kts | 121° |
| 2026-05-04 21:55 | 47.01436 | 20.84537 | 33053 ft | 469 kts | 121° |
| 2026-05-04 21:56 | 46.97855 | 20.92497 | 33052 ft | 469 kts | 121° |
| 2026-05-04 21:56 | 46.94262 | 21.00460 | 33058 ft | 469 kts | 121° |
| 2026-05-04 21:57 | 46.90657 | 21.08429 | 33058 ft | 469 kts | 121° |
| 2026-05-04 21:57 | 46.87081 | 21.16311 | 33057 ft | 469 kts | 121° |
| 2026-05-04 21:58 | 46.83467 | 21.24253 | 33059 ft | 469 kts | 121° |
| 2026-05-04 21:58 | 46.79867 | 21.32142 | 33063 ft | 469 kts | 121° |
| 2026-05-04 21:59 | 46.76246 | 21.40054 | 33063 ft | 469 kts | 121° |
| 2026-05-04 21:59 | 46.72610 | 21.47976 | 33067 ft | 469 kts | 120° |
| 2026-05-04 22:00 | 46.68990 | 21.55842 | 33067 ft | 469 kts | 120° |
| 2026-05-04 22:00 | 46.65362 | 21.63703 | 33067 ft | 469 kts | 120° |
| 2026-05-04 22:01 | 46.61718 | 21.71576 | 33069 ft | 469 kts | 121° |
| 2026-05-04 22:01 | 46.58071 | 21.79431 | 33071 ft | 469 kts | 121° |
| 2026-05-04 22:02 | 46.54423 | 21.87270 | 33070 ft | 469 kts | 121° |
| 2026-05-04 22:02 | 46.50758 | 21.95123 | 33071 ft | 469 kts | 121° |
| 2026-05-04 22:03 | 46.47096 | 22.02945 | 33071 ft | 469 kts | 121° |
| 2026-05-04 22:03 | 46.43397 | 22.10825 | 33078 ft | 469 kts | 121° |
| 2026-05-04 22:04 | 46.39698 | 22.18685 | 33088 ft | 469 kts | 121° |
| 2026-05-04 22:04 | 46.35995 | 22.26528 | 33095 ft | 469 kts | 121° |
| 2026-05-04 22:05 | 46.32297 | 22.34341 | 33091 ft | 469 kts | 121° |
| 2026-05-04 22:05 | 46.28561 | 22.42210 | 33099 ft | 469 kts | 121° |
| 2026-05-04 22:06 | 46.24874 | 22.49956 | 33107 ft | 469 kts | 121° |
| 2026-05-04 22:06 | 46.21150 | 22.57756 | 33111 ft | 469 kts | 121° |
| 2026-05-04 22:07 | 46.17407 | 22.65576 | 33103 ft | 469 kts | 122° |
| 2026-05-04 22:07 | 46.13697 | 22.73305 | 33101 ft | 470 kts | 122° |
| 2026-05-04 22:08 | 46.09983 | 22.81020 | 33100 ft | 470 kts | 122° |
| 2026-05-04 22:08 | 46.06240 | 22.88776 | 33101 ft | 470 kts | 122° |
| 2026-05-04 22:09 | 46.02485 | 22.96537 | 33105 ft | 470 kts | 122° |
| 2026-05-04 22:09 | 45.98708 | 23.04321 | 33108 ft | 470 kts | 122° |
| 2026-05-04 22:10 | 45.94957 | 23.12029 | 33110 ft | 470 kts | 122° |
| 2026-05-04 22:10 | 45.91202 | 23.19728 | 33105 ft | 470 kts | 122° |
| 2026-05-04 22:11 | 45.87838 | 23.26609 | 33105 ft | 470 kts | 122° |
| 2026-05-04 22:11 | 45.84093 | 23.34249 | 33107 ft | 470 kts | 122° |
| 2026-05-04 22:12 | 45.80316 | 23.41927 | 33115 ft | 470 kts | 122° |
| 2026-05-04 22:12 | 45.76517 | 23.49645 | 33128 ft | 470 kts | 122° |
| 2026-05-04 22:13 | 45.72737 | 23.57314 | 33136 ft | 470 kts | 122° |
| 2026-05-04 22:13 | 45.68959 | 23.64960 | 33137 ft | 470 kts | 122° |
| 2026-05-04 22:14 | 45.65184 | 23.72581 | 33135 ft | 470 kts | 123° |
| 2026-05-04 22:14 | 45.61434 | 23.80131 | 33139 ft | 470 kts | 123° |
| 2026-05-04 22:15 | 45.57604 | 23.87823 | 33135 ft | 470 kts | 123° |
| 2026-05-04 22:15 | 45.53778 | 23.95484 | 33136 ft | 470 kts | 123° |
| 2026-05-04 22:16 | 45.49980 | 24.03072 | 33137 ft | 470 kts | 123° |
| 2026-05-04 22:16 | 45.46132 | 24.10737 | 33133 ft | 470 kts | 123° |
| 2026-05-04 22:17 | 45.42310 | 24.18330 | 33129 ft | 471 kts | 123° |
| 2026-05-04 22:17 | 45.38488 | 24.25903 | 33117 ft | 471 kts | 123° |
| 2026-05-04 22:18 | 45.34630 | 24.33528 | 33118 ft | 471 kts | 123° |
| 2026-05-04 22:18 | 45.30756 | 24.41164 | 33118 ft | 471 kts | 123° |